createdAt,value
2019-03-12T00:03:07.914Z,5.34
2019-03-12T00:08:10.313Z,5.17
2019-03-12T00:13:12.657Z,5.08
2019-03-12T00:18:14.734Z,5.01
2019-03-12T00:23:17.173Z,4.96
2019-03-12T00:28:19.523Z,4.90
2019-03-12T00:33:21.649Z,4.83
2019-03-12T00:38:23.684Z,4.74
2019-03-12T00:43:25.751Z,4.73
2019-03-12T00:48:27.787Z,4.66
2019-03-12T00:53:29.864Z,4.62
2019-03-12T00:58:32.192Z,4.63
2019-03-12T01:03:34.575Z,4.66
2019-03-12T01:08:36.664Z,4.61
2019-03-12T01:13:38.767Z,4.65
2019-03-12T01:18:40.823Z,4.72
2019-03-12T01:23:43.296Z,4.81
2019-03-12T01:28:45.479Z,4.86
2019-03-12T01:33:47.615Z,4.88
2019-03-12T01:38:49.673Z,4.85
2019-03-12T01:43:51.718Z,4.80
2019-03-12T01:48:53.723Z,4.72
2019-03-12T01:53:55.809Z,4.63
2019-03-12T01:58:57.917Z,4.68
2019-03-12T02:04:00.007Z,4.75
2019-03-12T02:09:02.596Z,4.72
2019-03-12T02:14:21.919Z,4.63
2019-03-12T02:19:24.245Z,4.61
2019-03-12T02:24:26.638Z,4.57
2019-03-12T02:29:28.665Z,4.52
2019-03-12T02:34:31.032Z,4.54
2019-03-12T02:39:33.359Z,4.39
2019-03-12T02:44:35.405Z,4.33
2019-03-12T02:49:37.446Z,4.26
2019-03-12T02:54:40.041Z,4.25
2019-03-12T02:59:42.124Z,4.26
2019-03-12T03:04:44.175Z,4.17
2019-03-12T03:09:46.298Z,4.09
2019-03-12T03:14:48.370Z,4.05
2019-03-12T03:19:50.429Z,4.05
2019-03-12T03:24:52.509Z,3.97
2019-03-12T03:29:54.600Z,3.94
2019-03-12T03:34:56.690Z,3.91
2019-03-12T03:39:58.791Z,3.83
2019-03-12T03:45:00.924Z,3.80
2019-03-12T03:50:03.254Z,3.75
2019-03-12T03:55:06.806Z,3.77
2019-03-12T04:00:12.175Z,3.81
2019-03-12T04:05:14.557Z,3.73
2019-03-12T04:10:16.571Z,3.68
2019-03-12T04:15:18.607Z,3.60
2019-03-12T04:20:20.974Z,3.49
2019-03-12T04:25:23.179Z,3.55
2019-03-12T04:30:25.248Z,3.53
2019-03-12T04:35:27.356Z,3.55
2019-03-12T04:40:29.394Z,3.50
2019-03-12T04:45:31.525Z,3.36
2019-03-12T04:50:33.604Z,3.15
2019-03-12T04:55:35.639Z,3.21
2019-03-12T05:00:38.083Z,3.03
2019-03-12T05:05:40.157Z,2.93
2019-03-12T05:10:42.610Z,2.84
2019-03-12T05:15:45.067Z,2.80
2019-03-12T05:20:47.114Z,2.75
2019-03-12T05:25:49.198Z,2.70
2019-03-12T05:30:51.238Z,2.49
2019-03-12T05:35:53.267Z,2.66
2019-03-12T05:40:55.353Z,2.56
2019-03-12T05:45:57.783Z,2.62
2019-03-12T05:50:59.867Z,2.59
2019-03-12T05:56:02.184Z,2.61
2019-03-12T06:01:06.679Z,2.60
2019-03-12T06:06:08.769Z,2.55
2019-03-12T06:11:11.127Z,2.69
2019-03-12T06:16:13.244Z,2.63
2019-03-12T06:21:15.384Z,2.58
2019-03-12T06:26:17.564Z,2.58
2019-03-12T06:31:45.631Z,2.70
2019-03-12T06:36:51.618Z,2.76
2019-03-12T06:42:02.111Z,2.70
2019-03-12T06:47:32.777Z,2.80
2019-03-12T06:53:09.546Z,2.87
2019-03-12T06:58:43.138Z,2.83
2019-03-12T07:03:54.994Z,2.92
2019-03-12T07:09:15.182Z,2.93
2019-03-12T07:14:27.831Z,2.96
2019-03-12T07:19:55.256Z,3.07
2019-03-12T07:25:08.712Z,3.12
2019-03-12T07:30:32.142Z,3.20
2019-03-12T07:35:52.675Z,3.18
2019-03-12T07:41:26.522Z,3.34
2019-03-12T07:46:46.057Z,3.46
2019-03-12T07:52:10.703Z,3.70
2019-03-12T07:57:47.796Z,3.78
2019-03-12T08:03:06.769Z,3.82
2019-03-12T08:08:28.420Z,4.06
2019-03-12T08:13:43.826Z,4.08
2019-03-12T08:19:11.746Z,4.20
2019-03-12T08:24:33.749Z,4.21
2019-03-12T08:29:54.824Z,4.51
2019-03-12T08:35:34.693Z,4.55
2019-03-12T08:40:52.356Z,4.75
2019-03-12T08:46:14.008Z,4.65
2019-03-12T08:51:35.654Z,5.01
2019-03-12T08:57:06.451Z,5.21
2019-03-12T09:02:34.254Z,5.48
2019-03-12T09:08:07.854Z,5.60
2019-03-12T09:13:39.006Z,5.88
2019-03-12T09:19:12.954Z,5.99
2019-03-12T09:24:34.610Z,6.01
2019-03-12T09:29:42.795Z,5.86
2019-03-12T09:34:51.208Z,6.16
2019-03-12T09:40:21.623Z,6.34
2019-03-12T09:45:49.243Z,6.42
2019-03-12T09:51:10.849Z,6.43
2019-03-12T09:56:32.466Z,6.70
2019-03-12T10:01:43.419Z,7.20
2019-03-12T10:07:03.876Z,7.34
2019-03-12T10:12:24.275Z,7.16
2019-03-12T10:17:44.533Z,7.35
2019-03-12T10:23:07.014Z,7.53
2019-03-12T10:28:25.607Z,8.00
2019-03-12T10:33:50.171Z,8.03
2019-03-12T10:39:43.807Z,7.69
2019-03-12T10:45:05.413Z,7.70
2019-03-12T10:50:07.898Z,7.75
2019-03-12T10:55:13.384Z,7.67
2019-03-12T11:00:14.347Z,7.95
2019-03-12T11:05:17.633Z,7.99
2019-03-12T11:10:20.007Z,8.13
2019-03-12T11:15:22.023Z,8.24
2019-03-12T11:20:24.372Z,8.38
2019-03-12T11:25:28.183Z,8.32
2019-03-12T11:30:30.553Z,8.43
2019-03-12T11:35:39.212Z,8.60
2019-03-12T11:40:36.976Z,8.51
2019-03-12T11:45:39.456Z,8.43
2019-03-12T11:50:42.001Z,8.65
2019-03-12T11:55:44.380Z,8.49
2019-03-12T12:00:55.109Z,8.44
2019-03-12T12:05:57.140Z,8.54
2019-03-12T12:10:59.463Z,8.55
2019-03-12T12:16:01.632Z,8.39
2019-03-12T12:21:03.949Z,8.60
2019-03-12T12:26:05.957Z,8.59
2019-03-12T12:31:08.033Z,8.48
2019-03-12T12:36:10.072Z,8.75
2019-03-12T12:41:12.148Z,8.92
2019-03-12T12:46:14.194Z,8.69
2019-03-12T12:51:16.420Z,8.87
2019-03-12T12:56:18.478Z,8.73
2019-03-12T13:01:20.593Z,8.74
2019-03-12T13:06:22.981Z,8.80
2019-03-12T13:11:25.061Z,8.78
2019-03-12T13:16:27.048Z,8.98
2019-03-12T13:21:29.149Z,9.16
2019-03-12T13:26:31.219Z,9.71
2019-03-12T13:31:33.258Z,10.21
2019-03-12T13:36:35.624Z,10.13
2019-03-12T13:41:38.051Z,10.13
2019-03-12T13:46:40.666Z,9.60
2019-03-12T13:56:44.552Z,9.57
2019-03-12T14:01:46.713Z,9.55
2019-03-12T14:06:48.718Z,9.39
2019-03-12T14:11:50.798Z,9.40
2019-03-12T14:16:53.220Z,9.40
2019-03-12T14:21:55.428Z,9.36
2019-03-12T14:26:57.526Z,9.38
2019-03-12T14:31:59.612Z,9.43
2019-03-12T14:37:02.046Z,9.64
2019-03-12T14:42:10.344Z,9.98
2019-03-12T14:47:12.409Z,10.15
2019-03-12T14:52:23.808Z,10.15
2019-03-12T14:57:26.130Z,10.38
2019-03-12T15:02:28.215Z,12.75
2019-03-12T15:07:30.264Z,12.75
2019-03-12T15:12:32.326Z,10.43
2019-03-12T15:17:34.330Z,10.67
2019-03-12T15:22:36.410Z,10.42
2019-03-12T15:27:38.447Z,10.07
2019-03-12T15:32:40.551Z,10.15
2019-03-12T15:37:42.642Z,10.00
2019-03-12T15:42:45.199Z,10.09
2019-03-12T15:47:47.290Z,10.01
2019-03-12T15:52:49.328Z,10.01
2019-03-12T15:57:51.440Z,9.74
2019-03-12T16:02:54.108Z,9.74
2019-03-12T16:07:56.191Z,9.64
2019-03-12T16:12:58.512Z,9.46
2019-03-12T16:18:00.546Z,9.27
2019-03-12T16:23:02.748Z,9.22
2019-03-12T16:28:04.810Z,9.18
2019-03-12T16:33:07.227Z,9.10
2019-03-12T16:38:09.303Z,9.06
2019-03-12T16:43:11.356Z,9.01
2019-03-12T16:48:13.391Z,8.96
2019-03-12T16:53:15.556Z,8.95
2019-03-12T16:58:17.940Z,8.85
2019-03-12T17:03:20.127Z,8.80
2019-03-12T17:08:22.509Z,8.77
2019-03-12T17:13:24.599Z,8.69
2019-03-12T17:18:26.714Z,8.69
2019-03-12T17:23:29.049Z,8.58
2019-03-12T17:28:31.495Z,8.64
2019-03-12T17:33:33.533Z,8.58
2019-03-12T17:38:45.998Z,8.54
2019-03-12T17:43:40.481Z,8.60
2019-03-12T17:48:42.548Z,8.64
2019-03-12T17:53:44.609Z,8.63
2019-03-12T17:58:47.024Z,8.58
2019-03-12T18:03:49.042Z,8.56
2019-03-12T18:08:51.183Z,8.60
2019-03-12T18:13:53.304Z,8.58
2019-03-12T18:18:55.463Z,8.66
2019-03-12T18:23:57.547Z,8.86
2019-03-12T18:28:59.726Z,8.67
2019-03-12T18:34:01.916Z,8.61
2019-03-12T18:39:07.237Z,8.75
2019-03-12T18:44:09.282Z,8.79
2019-03-12T18:49:11.371Z,8.82
2019-03-12T18:54:13.409Z,8.89
2019-03-12T18:59:15.476Z,9.08
2019-03-12T19:04:17.594Z,9.03
2019-03-12T19:09:19.667Z,9.08
2019-03-12T19:14:22.188Z,9.20
2019-03-12T19:19:24.241Z,9.16
2019-03-12T19:24:26.366Z,9.23
2019-03-12T19:29:28.798Z,9.17
2019-03-12T19:34:32.758Z,9.26
2019-03-12T19:39:35.784Z,9.38
2019-03-12T19:44:37.844Z,9.43
2019-03-12T19:49:40.580Z,9.53
2019-03-12T19:54:42.856Z,9.42
2019-03-12T19:59:44.929Z,9.66
2019-03-12T20:04:47.696Z,9.55
2019-03-12T20:10:13.988Z,9.57
2019-03-12T20:15:55.005Z,9.46
2019-03-12T20:22:06.866Z,9.63
2019-03-12T20:28:08.824Z,9.71
2019-03-12T20:34:17.490Z,9.74
2019-03-12T20:39:56.342Z,9.79
2019-03-12T20:45:35.371Z,9.74
2019-03-12T20:51:13.501Z,9.80
2019-03-12T20:57:07.999Z,9.79
2019-03-12T21:02:48.092Z,9.88
2019-03-12T21:08:20.096Z,9.88
2019-03-12T21:14:34.796Z,9.88
2019-03-12T21:20:38.853Z,9.85
2019-03-12T21:26:29.098Z,9.85
2019-03-12T21:31:31.389Z,9.85
2019-03-12T21:36:34.567Z,9.77
2019-03-12T21:41:36.713Z,9.83
2019-03-12T21:46:38.772Z,9.75
2019-03-12T21:51:41.327Z,9.82
2019-03-12T21:56:43.429Z,9.82
2019-03-12T22:01:45.591Z,9.71
2019-03-12T22:06:47.655Z,9.61
2019-03-12T22:11:49.778Z,9.61
2019-03-12T22:16:55.163Z,9.55
2019-03-12T22:22:19.835Z,9.51
2019-03-12T22:27:21.905Z,9.44
2019-03-12T22:32:24.095Z,9.50
2019-03-12T22:37:26.175Z,9.50
2019-03-12T22:42:28.256Z,9.42
2019-03-12T22:47:30.690Z,9.54
2019-03-12T22:52:32.780Z,9.49
2019-03-12T22:57:34.778Z,9.63
2019-03-12T23:02:36.972Z,9.58
2019-03-12T23:07:39.384Z,9.66
2019-03-12T23:12:41.398Z,9.82
2019-03-12T23:17:43.575Z,9.85
2019-03-12T23:22:47.052Z,9.91
2019-03-12T23:27:49.096Z,9.92
2019-03-12T23:32:51.681Z,9.77
2019-03-12T23:37:53.780Z,9.73
2019-03-12T23:42:55.859Z,9.56
2019-03-12T23:47:57.949Z,9.41
2019-03-12T23:53:00.129Z,9.19
2019-03-12T23:58:02.538Z,8.91
